Aeroporto :
LOGIN :

Iscrizione | Disclaimer

   EN    FR    IT 

 










Sommario :    VFR   VFR Marginale   IFR   IFR Intensivo   IFR Molto Intensivo
Visibilità : 
Base nubi : 
>= 8 km
>= 3000ft
5 / 8 km
1000 / 3000 ft
1500m / 5 km
500 / 1000 ft
800 / 1500m
200 / 500 ft
< 800m
< 200 ft
Simboli :   Temporali  Nebbia  Neve Forte  Precipitazioni Forti  Vento > 20 kt
SIGMETs :   Varie  Temporali  Ghiacco  Turbolenza  Onda orograficha  Ceneri Vulcaniche






- Altitudine del aeroporto : 286 ft
- Codice IATA : FFD


EGVA - RAF Fairford

ULTIMO METAR :
  • 261556Z AUTO 34015G22KT 9999 FEW039 13/04 A2993 RMK AO2 SLP140 T01280035 $

METARs OBSOLETI :
  • 261551Z AUTO 35008G18KT 9999 SCT039 13/03 A2993 RMK AO2 SLP140 $
  • 261456Z AUTO 35014KT 9999 BKN044 13/03 A2992 RMK AO2 SLP136 T01300025 55000 $
  • 261426Z AUTO 36016G21KT 9999 SCT042 13/03 A2991 RMK AO2 SLP133 $
  • 261406Z AUTO 35012G21KT 9999 BKN043 BKN050 13/02 A2991 RMK AO2 SLP133 $
  • 261356Z AUTO 33014G23KT 9999 SCT043 SCT050 13/02 A2991 RMK AO2 PK WND 35026/46 SLP133 T01310023 $

TAF AMD TAF EGVA
Valido dal 26 a 13 ore il 27 a 13 ore UTC


261350Z 2613/2713 34012G20KT 9999 BKN040 QNH2990INS
TEMPO 2610/2616 34015G25KT
BECMG 2700/2701 34014G22KT 9999 SCT015 BKN020 OVC030 QNH2994INS
BECMG 2705/2706 34014G22KT 9999 SCT010 BKN015 QNH2995INS
TEMPO 2708/2711 24015G25KT
BECMG 2711/2712 34014G22KT 9999 BKN020 QNH2994INS TX13/2613Z TN07/2705Z LAST NO AMDS AFT 2613 NEXT 2805



MetMap, La meteo Aeronautica in un colpo d'occhio ! - Copyright ORBIFLY Dicembre 2007 - Disclaimer

ORBIFLY MET'MAP TEAM :

Programmazione e sviluppo : Alexandra Zaïnal
Concezione : Baudouin d'Aumeries
Aiuto per la programmazione : Marc-Olivier Méhu
Supporto tecnico e logistico : Manuel Goepfert
Aiuto per la traduzione : Arnaldo La Scala

Contatto : metmap@orbifly.com




FONTI E CREDITI :

   NOAA